createdAt,value
2019-05-02T00:02:30.085Z,98011.64
2019-05-02T00:05:00.050Z,98006.30
2019-05-02T00:07:29.739Z,98006.36
2019-05-02T00:09:59.812Z,98002.88
2019-05-02T00:12:29.808Z,97999.71
2019-05-02T00:15:02.378Z,97999.97
2019-05-02T00:17:31.826Z,97993.12
2019-05-02T00:20:01.463Z,98003.53
2019-05-02T00:22:31.190Z,98003.77
2019-05-02T00:25:00.895Z,97995.79
2019-05-02T00:27:32.852Z,97997.61
2019-05-02T00:30:01.993Z,97998.39
2019-05-02T00:32:31.650Z,97996.23
2019-05-02T00:35:01.353Z,97993.78
2019-05-02T00:37:30.983Z,97989.47
2019-05-02T00:40:00.715Z,97982.11
2019-05-02T00:42:30.459Z,97981.71
2019-05-02T00:45:00.110Z,97978.48
2019-05-02T00:47:31.375Z,97975.13
2019-05-02T00:50:01.025Z,97974.63
2019-05-02T00:52:32.856Z,97971.39
2019-05-02T00:55:02.039Z,97970.61
2019-05-02T00:57:31.658Z,97972.17
2019-05-02T01:00:01.317Z,97968.04
2019-05-02T01:02:35.950Z,97967.05
2019-05-02T01:05:07.801Z,97969.30
2019-05-02T01:07:37.423Z,97971.05
2019-05-02T01:10:08.444Z,97969.98
2019-05-02T01:12:39.927Z,97972.27
2019-05-02T01:15:10.152Z,97977.11
2019-05-02T01:17:39.809Z,97973.79
2019-05-02T01:20:10.244Z,97971.34
2019-05-02T01:22:39.928Z,97968.74
2019-05-02T01:25:15.325Z,97959.73
2019-05-02T01:27:48.745Z,97961.05
2019-05-02T01:30:18.856Z,97957.90
2019-05-02T01:33:06.601Z,97959.19
2019-05-02T01:35:40.188Z,97951.66
2019-05-02T01:38:31.801Z,97949.27
2019-05-02T01:40:58.206Z,97951.16
2019-05-02T01:43:31.319Z,97955.94
2019-05-02T01:46:01.090Z,97959.45
2019-05-02T01:48:30.786Z,97956.64
2019-05-02T01:51:04.676Z,97960.90
2019-05-02T01:53:34.205Z,97964.70
2019-05-02T01:56:03.197Z,97965.86
2019-05-02T01:58:32.888Z,97967.91
2019-05-02T02:01:02.621Z,97967.52
2019-05-02T02:03:32.233Z,97954.50
2019-05-02T02:06:02.760Z,97963.34
2019-05-02T02:08:34.016Z,97961.88
2019-05-02T02:11:03.884Z,97958.96
2019-05-02T02:13:36.401Z,97954.58
2019-05-02T02:16:05.921Z,97960.32
2019-05-02T02:18:40.240Z,97960.73
2019-05-02T02:21:12.147Z,97960.11
2019-05-02T02:23:52.447Z,97958.58
2019-05-02T02:26:23.851Z,97958.75
2019-05-02T02:28:53.570Z,97952.58
2019-05-02T02:31:23.355Z,97957.70
2019-05-02T02:33:53.029Z,97958.70
2019-05-02T02:36:31.685Z,97953.19
2019-05-02T02:38:54.082Z,97954.77
2019-05-02T02:41:23.724Z,97953.91
2019-05-02T02:44:03.941Z,97955.05
2019-05-02T02:46:38.050Z,97954.49
2019-05-02T02:49:06.760Z,97950.20
2019-05-02T02:51:36.412Z,97953.36
2019-05-02T02:54:06.189Z,97958.64
2019-05-02T02:56:40.416Z,97952.14
2019-05-02T02:59:07.396Z,97957.83
2019-05-02T03:01:37.038Z,97951.59
2019-05-02T03:04:09.471Z,97946.03
2019-05-02T03:06:44.251Z,97947.76
2019-05-02T03:09:09.679Z,97944.75
2019-05-02T03:11:40.956Z,97949.77
2019-05-02T03:14:17.734Z,97951.36
2019-05-02T03:16:49.587Z,97952.09
2019-05-02T03:19:21.213Z,97947.20
2019-05-02T03:22:00.886Z,97940.08
2019-05-02T03:24:27.879Z,97941.63
2019-05-02T03:26:58.546Z,97934.89
2019-05-02T03:29:39.789Z,97936.05
2019-05-02T03:32:14.339Z,97942.52
2019-05-02T03:34:47.367Z,97933.36
2019-05-02T03:37:09.571Z,97937.70
2019-05-02T03:39:34.439Z,97939.53
2019-05-02T03:42:05.080Z,97939.07
2019-05-02T03:44:35.017Z,97939.53
2019-05-02T03:47:05.250Z,97936.41
2019-05-02T03:49:41.225Z,97939.67
2019-05-02T03:52:07.017Z,97935.56
2019-05-02T03:54:48.584Z,97934.80
2019-05-02T03:57:08.650Z,97938.77
2019-05-02T03:59:41.593Z,97938.52
2019-05-02T04:02:14.030Z,97934.52
2019-05-02T04:04:43.305Z,97938.69
2019-05-02T04:07:13.872Z,97935.08
2019-05-02T04:09:43.595Z,97932.15
2019-05-02T04:12:18.551Z,97938.16
2019-05-02T04:14:45.069Z,97935.92
2019-05-02T04:17:15.696Z,97941.84
2019-05-02T04:19:45.688Z,97940.73
2019-05-02T04:22:16.415Z,97943.53
2019-05-02T04:24:54.585Z,97941.50
2019-05-02T04:27:17.767Z,97949.56
2019-05-02T04:29:47.417Z,97944.70
2019-05-02T04:32:17.107Z,97953.14
2019-05-02T04:34:49.045Z,97951.77
2019-05-02T04:37:18.129Z,97956.18
2019-05-02T04:39:49.112Z,97953.36
2019-05-02T04:42:22.992Z,97955.70
2019-05-02T04:45:11.897Z,97948.48
2019-05-02T04:47:22.368Z,97950.92
2019-05-02T04:49:52.301Z,97952.73
2019-05-02T04:52:22.044Z,97950.63
2019-05-02T04:54:51.666Z,97950.27
2019-05-02T04:57:29.199Z,97949.01
2019-05-02T05:00:04.949Z,97952.18
2019-05-02T05:02:34.147Z,97952.08
2019-05-02T05:04:55.410Z,97953.85
2019-05-02T05:07:25.209Z,97957.92
2019-05-02T05:09:58.196Z,97952.73
2019-05-02T05:12:27.778Z,97955.98
2019-05-02T05:14:57.862Z,97961.02
2019-05-02T05:17:32.448Z,97961.52
2019-05-02T05:20:10.446Z,97961.64
2019-05-02T05:22:38.462Z,97963.13
2019-05-02T05:25:17.742Z,97963.66
2019-05-02T05:27:48.067Z,97965.69
2019-05-02T05:30:19.442Z,97968.23
2019-05-02T05:32:49.070Z,97964.98
2019-05-02T05:35:18.800Z,97963.91
2019-05-02T05:37:52.959Z,97964.13
2019-05-02T05:40:22.578Z,97967.64
2019-05-02T05:42:51.269Z,97967.55
2019-05-02T05:45:20.952Z,97967.36
2019-05-02T05:47:52.446Z,97965.14
2019-05-02T05:50:22.043Z,97963.39
2019-05-02T05:52:52.016Z,97958.66
2019-05-02T05:55:24.458Z,97962.48
2019-05-02T05:58:00.037Z,97959.91
2019-05-02T06:00:24.673Z,97957.38
2019-05-02T06:03:01.184Z,97957.47
2019-05-02T06:05:27.654Z,97950.95
2019-05-02T06:07:57.563Z,97955.28
2019-05-02T06:10:27.359Z,97949.53
2019-05-02T06:12:56.985Z,97950.22
2019-05-02T06:15:26.648Z,97944.80
2019-05-02T06:18:00.082Z,97945.98
2019-05-02T06:20:30.635Z,97948.31
2019-05-02T06:23:00.105Z,97948.39
2019-05-02T06:25:34.180Z,97944.96
2019-05-02T06:28:05.466Z,97944.78
2019-05-02T06:30:33.277Z,97942.45
2019-05-02T06:33:02.907Z,97940.42
2019-05-02T06:35:32.585Z,97942.14
2019-05-02T06:38:02.219Z,97939.70
2019-05-02T06:40:31.852Z,97941.11
2019-05-02T06:43:04.349Z,97938.94
2019-05-02T06:45:37.564Z,97937.97
2019-05-02T06:48:04.388Z,97936.17
2019-05-02T06:50:38.803Z,97940.52
2019-05-02T06:53:09.736Z,97927.53
2019-05-02T06:55:38.746Z,97933.73
2019-05-02T06:58:08.594Z,97924.08
2019-05-02T07:00:55.645Z,97927.63
2019-05-02T07:03:11.502Z,97929.25
2019-05-02T07:05:43.827Z,97929.88
2019-05-02T07:08:14.075Z,97917.98
2019-05-02T07:10:45.196Z,97915.80
2019-05-02T07:13:15.477Z,97913.41
2019-05-02T07:15:48.601Z,97913.99
2019-05-02T07:18:20.165Z,97915.38
2019-05-02T07:20:49.906Z,97908.25
2019-05-02T07:23:19.620Z,97910.70
2019-05-02T07:25:49.260Z,97907.02
2019-05-02T07:28:19.057Z,97902.72
2019-05-02T07:30:48.702Z,97902.73
2019-05-02T07:33:18.371Z,97908.38
2019-05-02T07:35:48.067Z,97902.78
2019-05-02T07:38:20.264Z,97903.12
2019-05-02T07:40:53.061Z,97897.48
2019-05-02T07:43:22.210Z,97895.61
2019-05-02T07:45:52.116Z,97892.92
2019-05-02T07:48:21.772Z,97895.59
2019-05-02T07:50:51.850Z,97888.63
2019-05-02T07:53:21.844Z,97885.13
2019-05-02T07:55:51.513Z,97882.72
2019-05-02T07:58:21.229Z,97878.92
2019-05-02T08:00:50.887Z,97873.81
2019-05-02T08:03:20.518Z,97870.55
2019-05-02T08:05:54.491Z,97869.47
2019-05-02T08:08:24.974Z,97874.78
2019-05-02T08:10:53.371Z,97874.25
2019-05-02T08:13:24.374Z,97866.73
2019-05-02T08:15:54.014Z,97868.21
2019-05-02T08:18:25.129Z,97867.41
2019-05-02T08:20:56.094Z,97866.59
2019-05-02T08:23:27.888Z,97865.23
2019-05-02T08:25:57.723Z,97859.48
2019-05-02T08:28:29.022Z,97856.01
2019-05-02T08:30:58.663Z,97855.34
2019-05-02T08:33:29.290Z,97852.85
2019-05-02T08:35:59.687Z,97849.28
2019-05-02T08:38:29.375Z,97841.63
2019-05-02T08:40:58.998Z,97832.78
2019-05-02T08:43:28.631Z,97839.47
2019-05-02T08:45:58.293Z,97835.31
2019-05-02T08:48:27.928Z,97826.97
2019-05-02T08:50:57.598Z,97825.71
2019-05-02T08:53:27.229Z,97819.38
2019-05-02T08:55:56.893Z,97825.77
2019-05-02T08:58:26.527Z,97815.69
2019-05-02T09:00:56.269Z,97809.16
2019-05-02T09:03:25.886Z,97811.39
2019-05-02T09:06:05.504Z,97799.95
2019-05-02T09:08:27.219Z,97800.62
2019-05-02T09:10:56.848Z,97792.53
2019-05-02T09:13:29.340Z,97790.34
2019-05-02T09:15:57.936Z,97793.16
2019-05-02T09:18:35.270Z,97784.94
2019-05-02T09:20:58.956Z,97778.00
2019-05-02T09:23:35.017Z,97768.25
2019-05-02T09:26:00.133Z,97778.88
2019-05-02T09:28:31.884Z,97769.38
2019-05-02T09:31:04.974Z,97774.82
2019-05-02T09:33:36.821Z,97778.93
2019-05-02T09:36:04.064Z,97762.20
2019-05-02T09:38:35.298Z,97767.06
2019-05-02T09:41:16.124Z,97761.75
2019-05-02T09:43:39.042Z,97754.56
2019-05-02T09:46:12.826Z,97758.66
2019-05-02T09:48:39.211Z,97755.72
2019-05-02T09:51:15.669Z,97755.91
2019-05-02T09:53:40.381Z,97746.03
2019-05-02T09:56:10.036Z,97754.24
2019-05-02T09:58:39.668Z,97748.25
2019-05-02T10:01:14.151Z,97749.28
2019-05-02T10:03:43.863Z,97750.81
2019-05-02T10:06:18.054Z,97742.02
2019-05-02T10:08:46.537Z,97744.56
2019-05-02T10:11:16.937Z,97739.28
2019-05-02T10:13:47.907Z,97737.69
2019-05-02T10:16:22.382Z,97737.72
2019-05-02T10:18:49.249Z,97729.32
2019-05-02T10:21:19.116Z,97730.17
2019-05-02T10:23:51.807Z,97725.29
2019-05-02T10:26:24.550Z,97730.56
2019-05-02T10:28:53.578Z,97739.63
2019-05-02T10:31:27.577Z,97721.55
2019-05-02T10:33:55.048Z,97718.20
2019-05-02T10:36:24.811Z,97716.49
2019-05-02T10:38:59.038Z,97710.22
2019-05-02T10:41:25.845Z,97716.18
2019-05-02T10:43:59.171Z,97708.25
2019-05-02T10:46:33.452Z,97705.97
2019-05-02T10:49:02.033Z,97710.69
2019-05-02T10:51:35.014Z,97705.62
2019-05-02T10:54:06.577Z,97696.95
2019-05-02T10:56:36.433Z,97693.24
2019-05-02T10:59:06.223Z,97697.19
2019-05-02T11:01:37.597Z,97698.64
2019-05-02T11:04:12.860Z,97690.66
2019-05-02T11:06:46.189Z,97688.57
2019-05-02T11:09:16.751Z,97685.75
2019-05-02T11:11:46.114Z,97681.95
2019-05-02T11:14:29.222Z,97678.16
2019-05-02T11:17:03.194Z,97676.93
2019-05-02T11:19:46.417Z,97677.30
2019-05-02T11:22:16.165Z,97679.13
2019-05-02T11:24:45.842Z,97671.77
2019-05-02T11:27:15.459Z,97670.97
2019-05-02T11:29:45.240Z,97668.10
2019-05-02T11:32:14.932Z,97661.55
2019-05-02T11:34:44.590Z,97653.59
2019-05-02T11:37:14.286Z,97655.28
2019-05-02T11:39:49.756Z,97652.65
2019-05-02T11:42:17.801Z,97643.58
2019-05-02T11:44:46.757Z,97650.38
2019-05-02T11:47:17.341Z,97649.41
2019-05-02T11:49:52.064Z,97641.30
2019-05-02T11:52:19.282Z,97644.00
2019-05-02T11:54:49.006Z,97637.95
2019-05-02T11:57:22.799Z,97629.61
2019-05-02T11:59:51.948Z,97626.96
2019-05-02T12:02:25.698Z,97634.30
2019-05-02T12:04:55.653Z,97627.89
2019-05-02T12:07:25.508Z,97624.92
2019-05-02T12:09:57.078Z,97623.33
2019-05-02T12:12:27.190Z,97623.00
2019-05-02T12:14:57.976Z,97625.38
2019-05-02T12:17:27.695Z,97621.95
2019-05-02T12:19:57.480Z,97613.03
2019-05-02T12:22:27.154Z,97614.86
2019-05-02T12:24:56.852Z,97617.64
2019-05-02T12:27:26.537Z,97614.55
2019-05-02T12:29:57.926Z,97613.83
2019-05-02T12:32:27.842Z,97615.41
2019-05-02T12:34:57.500Z,97606.66
2019-05-02T12:37:27.135Z,97601.52
2019-05-02T12:39:56.804Z,97608.17
2019-05-02T12:42:26.868Z,97606.11
2019-05-02T12:44:56.671Z,97608.08
2019-05-02T12:47:26.301Z,97603.20
2019-05-02T12:49:55.990Z,97602.88
2019-05-02T12:52:25.620Z,97594.84
2019-05-02T12:54:55.258Z,97595.38
2019-05-02T12:57:24.922Z,97593.44
2019-05-02T12:59:55.619Z,97595.34
2019-05-02T13:02:32.437Z,97593.72
2019-05-02T13:05:02.522Z,97604.88
2019-05-02T13:07:32.318Z,97594.44
2019-05-02T13:10:02.571Z,97594.30
2019-05-02T13:12:34.098Z,97597.74
2019-05-02T13:15:04.462Z,97599.38
2019-05-02T13:17:42.520Z,97593.33
2019-05-02T13:20:08.877Z,97588.28
2019-05-02T13:22:52.660Z,97583.26
2019-05-02T13:25:27.200Z,97566.77
2019-05-02T13:27:56.155Z,97563.15
2019-05-02T13:30:32.805Z,97558.42
2019-05-02T13:33:03.365Z,97563.09
2019-05-02T13:35:34.665Z,97566.93
2019-05-02T13:38:05.379Z,97559.77
2019-05-02T13:40:41.832Z,97550.28
2019-05-02T13:43:12.653Z,97551.78
2019-05-02T13:45:47.881Z,97555.27
2019-05-02T13:48:17.508Z,97551.89
2019-05-02T13:50:47.303Z,97547.98
2019-05-02T13:53:17.073Z,97531.87
2019-05-02T13:55:52.370Z,97537.77
2019-05-02T13:58:29.046Z,97541.13
2019-05-02T14:00:53.680Z,97537.47
2019-05-02T14:03:23.918Z,97536.41
2019-05-02T14:05:53.975Z,97534.03
2019-05-02T14:08:37.227Z,97528.98
2019-05-02T14:11:06.874Z,97515.81
2019-05-02T14:13:37.084Z,97516.71
2019-05-02T14:16:06.876Z,97521.23
2019-05-02T14:18:36.510Z,97517.20
2019-05-02T14:21:06.306Z,97513.06
2019-05-02T14:23:35.943Z,97505.94
2019-05-02T14:26:05.817Z,97504.13
2019-05-02T14:28:36.346Z,97496.09
2019-05-02T14:31:06.339Z,97492.20
2019-05-02T14:33:37.633Z,97487.48
2019-05-02T14:36:07.340Z,97487.27
2019-05-02T14:38:37.070Z,97483.41
2019-05-02T14:41:08.473Z,97478.53
2019-05-02T14:43:55.289Z,97479.09
2019-05-02T14:46:34.277Z,97474.09
2019-05-02T14:48:57.384Z,97474.19
2019-05-02T14:51:28.079Z,97473.44
2019-05-02T14:54:03.610Z,97472.52
2019-05-02T14:56:47.775Z,97472.97
2019-05-02T14:59:19.743Z,97480.97
2019-05-02T15:02:03.129Z,97472.30
2019-05-02T15:04:28.372Z,97474.01
2019-05-02T15:06:58.050Z,97479.65
2019-05-02T15:09:27.676Z,97478.81
2019-05-02T15:12:02.820Z,97482.88
2019-05-02T15:14:34.818Z,97476.92
2019-05-02T15:17:05.620Z,97481.20
2019-05-02T15:19:35.256Z,97495.24
2019-05-02T15:22:05.389Z,97501.86
2019-05-02T15:24:37.400Z,97513.25
2019-05-02T15:27:11.962Z,97520.89
2019-05-02T15:29:37.799Z,97528.28
2019-05-02T15:32:27.064Z,97524.68
2019-05-02T15:35:06.921Z,97529.61
2019-05-02T15:37:36.534Z,97538.25
2019-05-02T15:42:43.186Z,97545.95
2019-05-02T15:45:12.910Z,97552.57
2019-05-02T15:47:45.272Z,97555.23
2019-05-02T15:50:21.931Z,97561.36
2019-05-02T15:52:57.327Z,97579.38
2019-05-02T15:55:25.764Z,97589.38
2019-05-02T15:57:55.400Z,97598.09
2019-05-02T16:00:42.654Z,97607.41
2019-05-02T16:03:12.285Z,97606.16
2019-05-02T16:05:45.149Z,97618.59
2019-05-02T16:08:13.289Z,97631.13
2019-05-02T16:10:42.973Z,97631.65
2019-05-02T16:13:17.150Z,97640.47
2019-05-02T16:15:44.960Z,97644.89
2019-05-02T16:18:14.620Z,97649.41
2019-05-02T16:20:49.312Z,97646.16
2019-05-02T16:23:27.486Z,97651.67
2019-05-02T16:25:52.288Z,97651.01
2019-05-02T16:28:21.796Z,97656.84
2019-05-02T16:30:53.122Z,97655.12
2019-05-02T16:33:22.758Z,97654.86
2019-05-02T16:35:54.445Z,97655.34
2019-05-02T16:38:26.735Z,97659.05
2019-05-02T16:40:55.166Z,97660.56
2019-05-02T16:43:26.471Z,97657.11
2019-05-02T16:45:56.142Z,97648.76
2019-05-02T16:48:32.384Z,97651.45
2019-05-02T16:50:57.163Z,97647.25
2019-05-02T16:53:26.795Z,97650.75
2019-05-02T16:55:58.376Z,97644.11
2019-05-02T16:58:28.111Z,97648.05
2019-05-02T17:00:57.831Z,97644.43
2019-05-02T17:03:27.584Z,97641.42
2019-05-02T17:05:57.199Z,97633.87
2019-05-02T17:08:32.830Z,97633.33
2019-05-02T17:11:04.267Z,97630.35
2019-05-02T17:13:35.799Z,97628.23
2019-05-02T17:16:13.010Z,97634.62
2019-05-02T17:18:36.841Z,97639.31
2019-05-02T17:21:06.706Z,97644.91
2019-05-02T17:23:37.370Z,97655.55
2019-05-02T17:26:07.981Z,97657.94
2019-05-02T17:28:37.990Z,97648.75
2019-05-02T17:31:10.783Z,97651.72
2019-05-02T17:33:41.712Z,97654.23
2019-05-02T17:36:11.683Z,97658.15
2019-05-02T17:38:41.830Z,97658.47
2019-05-02T17:41:11.909Z,97659.34
2019-05-02T17:43:42.175Z,97661.38
2019-05-02T17:46:18.296Z,97662.48
2019-05-02T17:48:47.611Z,97657.40
2019-05-02T17:51:20.330Z,97657.77
2019-05-02T17:53:50.143Z,97650.76
2019-05-02T17:56:22.709Z,97644.97
2019-05-02T17:58:54.303Z,97642.49
2019-05-02T18:01:33.389Z,97636.22
2019-05-02T18:03:59.010Z,97638.37
2019-05-02T18:06:32.859Z,97626.30
2019-05-02T18:09:00.038Z,97632.41
2019-05-02T18:11:36.312Z,97633.75
2019-05-02T18:14:03.296Z,97631.55
2019-05-02T18:16:32.520Z,97630.92
2019-05-02T18:19:02.187Z,97628.36
2019-05-02T18:21:32.318Z,97628.80
2019-05-02T18:24:05.924Z,97631.05
2019-05-02T18:26:33.505Z,97627.47
2019-05-02T18:29:06.902Z,97632.17
2019-05-02T18:31:39.105Z,97632.80
2019-05-02T18:34:06.133Z,97637.78
2019-05-02T18:36:35.793Z,97636.88
2019-05-02T18:39:08.337Z,97645.27
2019-05-02T18:41:44.672Z,97640.15
2019-05-02T18:44:11.682Z,97646.73
2019-05-02T18:46:41.591Z,97642.66
2019-05-02T18:49:12.477Z,97652.68
2019-05-02T18:51:48.332Z,97666.45
2019-05-02T18:54:15.406Z,97667.92
2019-05-02T18:56:50.104Z,97672.38
2019-05-02T18:59:19.913Z,97667.36
2019-05-02T19:01:52.716Z,97664.61
2019-05-02T19:04:22.394Z,97665.84
2019-05-02T19:06:52.027Z,97661.53
2019-05-02T19:09:22.827Z,97665.00
2019-05-02T19:12:04.492Z,97671.96
2019-05-02T19:14:26.026Z,97662.51
2019-05-02T19:16:58.085Z,97667.27
2019-05-02T19:19:32.310Z,97670.34
2019-05-02T19:21:58.958Z,97677.17
2019-05-02T19:24:34.956Z,97680.12
2019-05-02T19:27:02.088Z,97681.74
2019-05-02T19:29:31.967Z,97678.62
2019-05-02T19:32:01.802Z,97681.51
2019-05-02T19:34:32.353Z,97691.86
2019-05-02T19:37:03.033Z,97692.88
2019-05-02T19:39:38.959Z,97704.20
2019-05-02T19:42:07.708Z,97697.71
2019-05-02T19:44:37.411Z,97697.20
2019-05-02T19:47:08.219Z,97699.02
2019-05-02T19:49:38.577Z,97694.69
2019-05-02T19:52:08.377Z,97692.47
2019-05-02T19:54:41.216Z,97695.69
2019-05-02T19:57:09.476Z,97693.81
2019-05-02T19:59:39.117Z,97693.55
2019-05-02T20:02:08.915Z,97688.77
2019-05-02T20:04:42.768Z,97700.33
2019-05-02T20:07:13.162Z,97698.95
2019-05-02T20:09:46.191Z,97705.67
2019-05-02T20:12:15.729Z,97702.42
2019-05-02T20:14:47.450Z,97707.98
2019-05-02T20:17:20.133Z,97706.75
2019-05-02T20:19:50.201Z,97701.91
2019-05-02T20:22:19.906Z,97706.52
2019-05-02T20:25:00.102Z,97705.41
2019-05-02T20:27:28.870Z,97709.47
2019-05-02T20:29:59.007Z,97710.34
2019-05-02T20:32:28.709Z,97713.30
2019-05-02T20:34:58.439Z,97716.58
2019-05-02T20:37:28.242Z,97720.64
2019-05-02T20:39:57.980Z,97721.48
2019-05-02T20:42:27.706Z,97718.04
2019-05-02T20:44:57.404Z,97724.27
2019-05-02T20:47:28.174Z,97722.50
2019-05-02T20:49:57.960Z,97727.20
2019-05-02T20:52:27.630Z,97732.39
2019-05-02T20:54:57.333Z,97735.77
2019-05-02T20:57:26.992Z,97734.03
2019-05-02T20:59:56.707Z,97738.23
2019-05-02T21:02:26.432Z,97739.84
2019-05-02T21:04:56.136Z,97743.19
2019-05-02T21:07:42.889Z,97747.34
2019-05-02T21:10:14.361Z,97748.34
2019-05-02T21:12:44.025Z,97739.65
2019-05-02T21:15:13.865Z,97744.04
2019-05-02T21:17:43.597Z,97744.06
2019-05-02T21:20:13.443Z,97744.80
2019-05-02T21:22:43.165Z,97739.43
2019-05-02T21:25:13.206Z,97741.03
2019-05-02T21:27:43.418Z,97741.75
2019-05-02T21:30:14.597Z,97747.47
2019-05-02T21:32:44.346Z,97746.64
2019-05-02T21:35:14.131Z,97749.88
2019-05-02T21:37:43.764Z,97756.90
2019-05-02T21:40:13.656Z,97762.25
2019-05-02T21:42:43.297Z,97765.25
2019-05-02T21:45:13.363Z,97763.41
2019-05-02T21:47:43.160Z,97762.30
2019-05-02T21:50:15.270Z,97766.62
2019-05-02T21:52:49.262Z,97766.66
2019-05-02T21:55:26.516Z,97769.07
2019-05-02T21:57:56.148Z,97768.58
2019-05-02T22:00:42.259Z,97769.07
2019-05-02T22:03:12.599Z,97765.33
2019-05-02T22:05:43.008Z,97767.84
2019-05-02T22:08:13.078Z,97770.26
2019-05-02T22:10:42.776Z,97772.20
2019-05-02T22:13:12.508Z,97770.86
2019-05-02T22:15:42.138Z,97768.18
2019-05-02T22:18:11.804Z,97765.82
2019-05-02T22:20:42.777Z,97767.42
2019-05-02T22:23:12.861Z,97764.20
2019-05-02T22:25:42.489Z,97769.05
2019-05-02T22:28:12.648Z,97767.68
2019-05-02T22:30:42.927Z,97767.47
2019-05-02T22:33:12.797Z,97770.45
2019-05-02T22:35:43.369Z,97767.78
2019-05-02T22:38:23.828Z,97774.73
2019-05-02T22:40:55.203Z,97780.20
2019-05-02T22:43:24.850Z,97774.56
2019-05-02T22:45:54.523Z,97778.59
2019-05-02T22:48:24.163Z,97778.34
2019-05-02T22:50:53.835Z,97771.92
2019-05-02T22:53:23.522Z,97774.08
2019-05-02T22:55:53.192Z,97771.22
2019-05-02T22:58:22.829Z,97766.63
2019-05-02T23:00:52.497Z,97771.98
2019-05-02T23:03:24.159Z,97772.25
2019-05-02T23:05:53.563Z,97774.47
2019-05-02T23:08:23.375Z,97766.63
2019-05-02T23:10:53.085Z,97768.79
2019-05-02T23:13:24.667Z,97759.63
2019-05-02T23:15:54.107Z,97763.68
2019-05-02T23:18:23.775Z,97754.33
2019-05-02T23:20:53.550Z,97765.59
2019-05-02T23:23:24.199Z,97765.31
2019-05-02T23:26:01.531Z,97760.48
2019-05-02T23:28:32.931Z,97763.12
2019-05-02T23:31:02.726Z,97765.29
2019-05-02T23:33:51.624Z,97762.33
2019-05-02T23:36:21.359Z,97775.45
2019-05-02T23:38:52.222Z,97761.52
2019-05-02T23:41:22.148Z,97763.14
2019-05-02T23:43:52.464Z,97763.95
2019-05-02T23:46:23.468Z,97758.59
2019-05-02T23:48:53.563Z,97758.04
2019-05-02T23:51:23.294Z,97757.02
2019-05-02T23:53:53.067Z,97756.78
2019-05-02T23:56:22.798Z,97764.00
2019-05-02T23:58:52.452Z,97755.51
